Accedi per prenotare

Caricamento...

Situazione Metar e Taf aeroporto Pisa - Effemeridi Aeroporto Lucca

[Source: ADDS]
METAR
LIRP 150845Z 12010KT CAVOK 27/14 Q1017 NOSIG =
LIRP 150500Z 1506/1606 VRB03KT 9999 FEW060 BECMG 1512/1514 30010KT BECMG 1516/1518 VRB03KT TEMPO 1523/1604 4000 BR BKN015
TAF
LIRP 150500Z 1506/1606 VRB03KT 9999 FEW060 BECMG 1512/1514 30010KT BECMG 1516/1518 VRB03KT TEMPO 1523/1604 4000 BR BKN015 =
SR / SS: 03:40 / 19:00 UTC (Effemeridi LIQL 2021-06-15)